logo
Search for airport 
image banner adimage banner adimage banner ad
image banner ad

LZKZ - Kosice

Located in Kosice, Slovakia

ICAO - LZKZ, IATA - KSC

Data provided by Airmate  

General information

Coordinates: N48°39'47" E21°14'28"
Elevation is 754 feet MSL.
Magnetic variation is 5.7599° East
View others Airports in Košice

Operational data

Special qualification required
Current time UTC:
Current local time:
Weather
METAR: LZKZ 140200Z VRB01KT CAVOK 10/08 Q1021 NOSIG
TAF: TAF LZKZ 132315Z 1400/1500 VRB02KT CAVOK BECMG 1408/1410 21010KT TEMPO 1409/1416 24015G25KT BECMG 1418/1420 VRB02KT
View NOTAMs / SUP AIP / TFR affecting this airport [VIEW]
Communications frequencies: [VIEW]

Runways:

RWY identifierQFULength (ft)Width (ft)SurfaceLDA (ft)
0113°10171148ASPH10171
19193°10171148ASPH10171

Airport contact information

Address: Kosice Slovakia

Other aviation service providers

Flight schools

Future Fly

Future Fly
info@futurefly.sk+421908314682

Technical University Kosice Faculty Of Aeronautics

Technical University Kosice Faculty Of Aeronautics
dekan.lf@tuke.sk+421556335192

Aviation club (not for profit)

Ads Ballooning

Ads Ballooning
balon@balon.sk+421911166333

Satellite view of LZKZ